createdAt,value
2017-10-23T00:00:13.953Z,0
2017-10-23T00:00:54.435Z,0
2017-10-23T00:01:34.925Z,0
2017-10-23T00:02:15.395Z,0
2017-10-23T00:02:55.877Z,0
2017-10-23T00:03:36.371Z,0
2017-10-23T00:04:16.850Z,0
2017-10-23T00:04:57.328Z,0
2017-10-23T00:05:37.813Z,0
2017-10-23T00:06:18.306Z,0
2017-10-23T00:06:58.814Z,0
2017-10-23T00:07:39.266Z,0
2017-10-23T00:08:19.722Z,0
2017-10-23T00:09:00.204Z,0
2017-10-23T00:09:40.704Z,0
2017-10-23T00:10:21.197Z,0
2017-10-23T00:11:01.683Z,0
2017-10-23T00:11:42.180Z,0
2017-10-23T00:12:22.659Z,0
2017-10-23T00:13:03.150Z,0
2017-10-23T00:13:43.652Z,0
2017-10-23T00:14:24.141Z,0
2017-10-23T00:15:04.615Z,0
2017-10-23T00:15:45.113Z,0
2017-10-23T00:16:25.601Z,0
2017-10-23T00:17:06.089Z,0
2017-10-23T00:17:46.591Z,0
2017-10-23T00:18:27.071Z,0
2017-10-23T00:19:07.569Z,0
2017-10-23T00:19:48.045Z,0
2017-10-23T00:20:28.481Z,0
2017-10-23T00:21:08.964Z,0
2017-10-23T00:21:49.460Z,0
2017-10-23T00:22:29.950Z,0
2017-10-23T00:23:10.444Z,0
2017-10-23T00:23:50.942Z,0
2017-10-23T00:24:31.436Z,0
2017-10-23T00:25:11.905Z,0
2017-10-23T00:25:52.409Z,0
2017-10-23T00:26:32.883Z,0
2017-10-23T00:27:13.363Z,0
2017-10-23T00:27:53.819Z,0
2017-10-23T00:28:34.280Z,0
2017-10-23T00:29:14.765Z,0
2017-10-23T00:29:55.262Z,0
2017-10-23T00:30:35.753Z,0
2017-10-23T00:31:16.228Z,0
2017-10-23T00:31:56.703Z,0
2017-10-23T00:32:37.210Z,0
2017-10-23T00:33:17.666Z,0
2017-10-23T00:33:58.148Z,0
2017-10-23T00:34:38.622Z,0
2017-10-23T00:35:19.110Z,0
2017-10-23T00:35:59.590Z,0
2017-10-23T00:36:40.095Z,0
2017-10-23T00:37:20.571Z,0
2017-10-23T00:38:01.033Z,0
2017-10-23T00:38:41.527Z,0
2017-10-23T00:39:22.030Z,0
2017-10-23T00:40:02.516Z,0
2017-10-23T00:40:43.018Z,0
2017-10-23T00:41:23.497Z,0
2017-10-23T00:42:03.987Z,0
2017-10-23T00:42:44.482Z,0
2017-10-23T00:43:24.960Z,0
2017-10-23T00:44:05.447Z,0
2017-10-23T00:44:45.919Z,0
2017-10-23T00:46:58.634Z,0
2017-10-23T00:47:39.103Z,0
2017-10-23T00:48:19.588Z,0
2017-10-23T00:49:00.066Z,0
2017-10-23T00:49:40.561Z,0
2017-10-23T00:50:21.044Z,0
2017-10-23T00:51:01.519Z,0
2017-10-23T00:51:42.004Z,0
2017-10-23T00:52:22.483Z,0
2017-10-23T00:53:02.975Z,0
2017-10-23T00:53:43.464Z,0
2017-10-23T00:54:23.959Z,0
2017-10-23T00:55:04.468Z,0
2017-10-23T00:55:44.956Z,0
2017-10-23T00:56:25.445Z,0
2017-10-23T00:57:05.928Z,0
2017-10-23T00:57:46.402Z,0
2017-10-23T00:58:26.884Z,0
2017-10-23T00:59:07.383Z,0
2017-10-23T00:59:47.862Z,0
2017-10-23T01:00:28.346Z,0
2017-10-23T01:01:08.836Z,0
2017-10-23T01:01:49.315Z,0
2017-10-23T01:02:29.801Z,0
2017-10-23T01:03:10.279Z,0
2017-10-23T01:03:50.795Z,0
2017-10-23T01:04:31.283Z,0
2017-10-23T01:05:11.779Z,0
2017-10-23T01:05:52.265Z,0
2017-10-23T01:06:32.750Z,0
2017-10-23T01:07:13.228Z,0
2017-10-23T01:07:53.734Z,0
2017-10-23T01:08:34.233Z,0
2017-10-23T01:09:14.736Z,0
2017-10-23T01:09:55.199Z,0
2017-10-23T01:10:35.692Z,0
2017-10-23T01:11:16.166Z,0
2017-10-23T01:11:56.644Z,0
2017-10-23T01:12:37.136Z,0
2017-10-23T01:13:17.619Z,0
2017-10-23T01:13:58.098Z,0
2017-10-23T01:14:38.578Z,0
2017-10-23T01:15:19.080Z,0
2017-10-23T01:15:59.573Z,0
2017-10-23T01:16:40.042Z,0
2017-10-23T01:18:57.815Z,0
2017-10-23T01:19:38.305Z,0
2017-10-23T01:20:18.797Z,0
2017-10-23T01:20:59.277Z,0
2017-10-23T01:21:39.756Z,0
2017-10-23T01:22:20.208Z,0
2017-10-23T01:23:00.682Z,0
2017-10-23T01:25:13.388Z,0
2017-10-23T01:25:53.859Z,0
2017-10-23T01:26:34.358Z,0
2017-10-23T01:27:14.841Z,0
2017-10-23T01:27:55.338Z,0
2017-10-23T01:28:35.822Z,0
2017-10-23T01:29:16.314Z,0
2017-10-23T01:29:56.812Z,0
2017-10-23T01:30:37.303Z,0
2017-10-23T01:31:17.793Z,0
2017-10-23T01:31:58.278Z,0
2017-10-23T01:32:38.754Z,0
2017-10-23T01:33:19.267Z,0
2017-10-23T01:33:59.726Z,0
2017-10-23T01:34:40.210Z,0
2017-10-23T01:35:20.689Z,0
2017-10-23T01:36:01.177Z,0
2017-10-23T01:36:41.666Z,0
2017-10-23T01:37:22.157Z,0
2017-10-23T01:38:02.650Z,0
2017-10-23T01:38:43.136Z,0
2017-10-23T01:39:23.624Z,0
2017-10-23T01:40:04.132Z,0
2017-10-23T01:40:44.624Z,0
2017-10-23T01:41:25.117Z,0
2017-10-23T01:42:05.609Z,0
2017-10-23T01:42:46.091Z,0
2017-10-23T01:43:26.583Z,0
2017-10-23T01:44:07.063Z,0
2017-10-23T01:44:47.571Z,0
2017-10-23T01:45:28.065Z,0
2017-10-23T01:46:08.567Z,0
2017-10-23T01:46:49.069Z,0
2017-10-23T01:47:29.550Z,0
2017-10-23T01:48:10.051Z,0
2017-10-23T01:48:50.530Z,0
2017-10-23T01:49:31.010Z,0
2017-10-23T01:50:11.494Z,0
2017-10-23T01:50:51.980Z,0
2017-10-23T01:51:32.461Z,0
2017-10-23T01:52:12.951Z,0
2017-10-23T01:52:53.428Z,0
2017-10-23T01:53:33.912Z,0
2017-10-23T01:54:14.417Z,0
2017-10-23T01:54:54.880Z,0
2017-10-23T01:55:35.362Z,0
2017-10-23T01:56:15.849Z,0
2017-10-23T01:56:56.344Z,0
2017-10-23T01:57:36.828Z,0
2017-10-23T01:58:17.315Z,0
2017-10-23T01:58:57.810Z,0
2017-10-23T01:59:38.293Z,0
2017-10-23T02:00:18.790Z,0
2017-10-23T02:00:59.286Z,0
2017-10-23T02:01:39.769Z,0
2017-10-23T02:02:20.240Z,0
2017-10-23T02:03:00.717Z,0
2017-10-23T02:03:41.199Z,0
2017-10-23T02:04:21.679Z,0
2017-10-23T02:05:02.166Z,0
2017-10-23T02:05:42.633Z,0
2017-10-23T02:06:23.103Z,0
2017-10-23T02:07:03.599Z,0
2017-10-23T02:07:44.087Z,0
2017-10-23T02:08:24.570Z,0
2017-10-23T02:09:05.051Z,0
2017-10-23T02:09:45.554Z,0
2017-10-23T02:10:26.034Z,0
2017-10-23T02:11:06.515Z,0
2017-10-23T02:11:47.009Z,0
2017-10-23T02:12:27.505Z,0
2017-10-23T02:13:07.997Z,0
2017-10-23T02:13:48.466Z,0
2017-10-23T02:14:28.958Z,0
2017-10-23T02:15:09.436Z,0
2017-10-23T02:15:49.918Z,0
2017-10-23T02:16:30.389Z,0
2017-10-23T02:17:10.894Z,0
2017-10-23T02:17:51.380Z,0
2017-10-23T02:18:31.853Z,0
2017-10-23T02:19:12.338Z,0
2017-10-23T02:19:52.829Z,0
2017-10-23T02:20:33.310Z,0
2017-10-23T02:22:51.119Z,0
2017-10-23T02:23:31.616Z,0
2017-10-23T02:24:12.115Z,0
2017-10-23T02:24:52.595Z,0
2017-10-23T02:25:33.091Z,0
2017-10-23T02:26:13.571Z,0
2017-10-23T02:26:54.054Z,0
2017-10-23T02:27:34.521Z,0
2017-10-23T02:28:15.001Z,0
2017-10-23T02:28:55.505Z,0
2017-10-23T02:29:35.973Z,0
2017-10-23T02:30:16.471Z,0
2017-10-23T02:30:56.981Z,0
2017-10-23T02:31:37.449Z,0
2017-10-23T02:32:17.927Z,0
2017-10-23T02:32:58.389Z,0
2017-10-23T02:33:38.817Z,0
2017-10-23T02:34:19.284Z,0
2017-10-23T02:34:59.719Z,0
2017-10-23T02:35:40.182Z,0
2017-10-23T02:36:20.647Z,0
2017-10-23T02:37:01.112Z,0
2017-10-23T02:37:41.613Z,0
2017-10-23T02:38:22.114Z,0
2017-10-23T02:39:02.566Z,0
2017-10-23T02:41:15.254Z,0
2017-10-23T02:41:55.748Z,0
2017-10-23T02:42:36.251Z,0
2017-10-23T02:43:16.735Z,0
2017-10-23T02:43:57.222Z,0
2017-10-23T02:44:37.707Z,0
2017-10-23T02:45:18.188Z,0
2017-10-23T02:45:58.666Z,0
2017-10-23T02:46:39.152Z,0
2017-10-23T02:47:19.640Z,0
2017-10-23T02:48:00.119Z,0
2017-10-23T02:48:40.604Z,0
2017-10-23T02:49:21.087Z,0
2017-10-23T02:50:01.583Z,0
2017-10-23T02:50:42.071Z,0
2017-10-23T02:51:22.573Z,0
2017-10-23T02:52:03.051Z,0
2017-10-23T02:52:43.537Z,0
2017-10-23T02:53:24.016Z,0
2017-10-23T02:54:04.509Z,0
2017-10-23T02:54:44.984Z,0
2017-10-23T02:55:25.468Z,0
2017-10-23T02:56:05.945Z,0
2017-10-23T02:56:46.403Z,0
2017-10-23T02:57:26.867Z,0
2017-10-23T02:58:07.359Z,0
2017-10-23T02:58:47.835Z,0
2017-10-23T03:00:45.479Z,0
2017-10-23T03:01:25.962Z,0
2017-10-23T03:02:06.450Z,0
2017-10-23T03:02:46.943Z,0
2017-10-23T03:03:27.446Z,0
2017-10-23T03:04:07.929Z,0
2017-10-23T03:04:48.405Z,0
2017-10-23T03:05:28.898Z,0
2017-10-23T03:06:09.405Z,0
2017-10-23T03:06:49.897Z,0
2017-10-23T03:07:30.443Z,0
2017-10-23T03:08:10.920Z,0
2017-10-23T03:08:51.413Z,0
2017-10-23T03:09:31.885Z,0
2017-10-23T03:10:12.371Z,0
2017-10-23T03:10:52.854Z,0
2017-10-23T03:11:33.349Z,0
2017-10-23T03:12:13.836Z,0
2017-10-23T03:12:54.321Z,0
2017-10-23T03:13:34.799Z,0
2017-10-23T03:14:15.308Z,0
2017-10-23T03:14:55.788Z,0
2017-10-23T03:15:36.260Z,0
2017-10-23T03:16:16.737Z,0
2017-10-23T03:16:57.245Z,0
2017-10-23T03:17:37.715Z,0
2017-10-23T03:18:18.200Z,0
2017-10-23T03:18:58.671Z,0
2017-10-23T03:19:39.176Z,0
2017-10-23T03:20:19.646Z,0
2017-10-23T03:22:37.460Z,0
2017-10-23T03:23:17.967Z,0
2017-10-23T03:23:58.454Z,0
2017-10-23T03:24:38.946Z,0
2017-10-23T03:25:19.445Z,0
2017-10-23T03:25:59.934Z,0
2017-10-23T03:26:40.423Z,0
2017-10-23T03:27:20.911Z,0
2017-10-23T03:28:01.404Z,0
2017-10-23T03:28:41.876Z,0
2017-10-23T03:29:22.375Z,0
2017-10-23T03:30:02.851Z,0
2017-10-23T03:30:43.330Z,0
2017-10-23T03:31:23.809Z,0
2017-10-23T03:32:04.269Z,0
2017-10-23T03:32:44.769Z,0
2017-10-23T03:33:25.250Z,0
2017-10-23T03:34:05.727Z,0
2017-10-23T03:34:46.218Z,0
2017-10-23T03:35:26.729Z,0
2017-10-23T03:36:07.222Z,0
2017-10-23T03:36:47.690Z,0
2017-10-23T03:37:28.152Z,0
2017-10-23T03:39:40.859Z,0
2017-10-23T03:40:21.340Z,0
2017-10-23T03:41:01.832Z,0
2017-10-23T03:41:42.316Z,0
2017-10-23T03:42:22.788Z,0
2017-10-23T03:43:03.275Z,0
2017-10-23T03:43:43.744Z,0
2017-10-23T03:44:24.213Z,0
2017-10-23T03:45:04.724Z,0
2017-10-23T03:45:45.192Z,0
2017-10-23T03:46:25.671Z,0
2017-10-23T03:47:06.173Z,0
2017-10-23T03:47:46.643Z,0
2017-10-23T03:48:27.129Z,0
2017-10-23T03:49:07.615Z,0
2017-10-23T03:49:48.088Z,0
2017-10-23T03:50:28.573Z,0
2017-10-23T03:51:09.060Z,0
2017-10-23T03:51:49.545Z,0
2017-10-23T03:52:30.025Z,0
2017-10-23T03:53:10.511Z,0
2017-10-23T03:55:08.148Z,0
2017-10-23T03:55:48.603Z,0
2017-10-23T03:56:29.083Z,0
2017-10-23T03:57:09.581Z,0
2017-10-23T03:57:50.048Z,0
2017-10-23T03:58:30.539Z,0
2017-10-23T03:59:11.028Z,0
2017-10-23T03:59:51.539Z,0
2017-10-23T04:00:31.996Z,0
2017-10-23T04:01:12.472Z,0
2017-10-23T04:01:52.972Z,0
2017-10-23T04:02:33.463Z,0
2017-10-23T04:03:13.938Z,0
2017-10-23T04:03:54.413Z,0
2017-10-23T04:04:34.912Z,0
2017-10-23T04:05:15.386Z,0
2017-10-23T04:05:55.877Z,0
2017-10-23T04:06:36.343Z,0
2017-10-23T04:07:16.844Z,0
2017-10-23T04:07:57.336Z,0
2017-10-23T04:08:37.821Z,0
2017-10-23T04:09:18.304Z,0
2017-10-23T04:09:58.802Z,0
2017-10-23T04:10:39.299Z,0
2017-10-23T04:11:19.797Z,0
2017-10-23T04:12:00.316Z,0
2017-10-23T04:12:40.750Z,0
2017-10-23T04:13:21.235Z,0
2017-10-23T04:14:01.742Z,0
2017-10-23T04:14:42.223Z,0
2017-10-23T04:15:22.721Z,0
2017-10-23T04:17:35.426Z,0
2017-10-23T04:18:15.914Z,0
2017-10-23T04:18:56.378Z,0
2017-10-23T04:19:36.876Z,0
2017-10-23T04:20:17.335Z,0
2017-10-23T04:20:57.825Z,0
2017-10-23T04:21:38.309Z,0
2017-10-23T04:22:18.805Z,0
2017-10-23T04:22:59.298Z,0
2017-10-23T04:23:39.794Z,0
2017-10-23T04:24:20.275Z,0
2017-10-23T04:25:00.761Z,0
2017-10-23T04:25:41.241Z,0
2017-10-23T04:26:21.721Z,0
2017-10-23T04:27:02.206Z,0
2017-10-23T04:27:42.713Z,0
2017-10-23T04:28:23.186Z,0
2017-10-23T04:29:03.664Z,0
2017-10-23T04:29:44.149Z,0
2017-10-23T04:30:24.653Z,0
2017-10-23T04:31:05.116Z,0
2017-10-23T04:31:45.600Z,0
2017-10-23T04:32:26.065Z,0
2017-10-23T04:33:06.576Z,0
2017-10-23T04:33:47.068Z,0
2017-10-23T04:34:27.557Z,0
2017-10-23T04:35:08.061Z,0
2017-10-23T04:35:48.532Z,0
2017-10-23T04:36:29.006Z,0
2017-10-23T04:38:56.967Z,0
2017-10-23T04:39:37.454Z,0
2017-10-23T04:40:17.962Z,0
2017-10-23T04:40:58.429Z,0
2017-10-23T04:41:38.907Z,0
2017-10-23T04:42:19.386Z,0
2017-10-23T04:42:59.869Z,0
2017-10-23T04:43:40.360Z,0
2017-10-23T04:44:20.853Z,0
2017-10-23T04:45:01.344Z,0
2017-10-23T04:45:41.824Z,0
2017-10-23T04:46:22.327Z,0
2017-10-23T04:47:02.808Z,0
2017-10-23T04:47:43.274Z,0
2017-10-23T04:48:23.760Z,0
2017-10-23T04:49:04.264Z,0
2017-10-23T04:49:44.770Z,0
2017-10-23T04:50:25.261Z,0
2017-10-23T04:51:05.730Z,0
2017-10-23T04:51:46.206Z,0
2017-10-23T04:52:26.657Z,0
2017-10-23T04:54:54.598Z,0
2017-10-23T04:55:35.034Z,0
2017-10-23T04:56:15.512Z,0
2017-10-23T04:56:56.002Z,0
2017-10-23T04:57:36.511Z,0
2017-10-23T04:58:16.967Z,0
2017-10-23T04:58:57.450Z,0
2017-10-23T04:59:37.935Z,0
2017-10-23T05:00:18.431Z,0
2017-10-23T05:00:58.924Z,0
2017-10-23T05:01:39.417Z,0
2017-10-23T05:02:19.906Z,0
2017-10-23T05:03:00.401Z,0
2017-10-23T05:03:40.890Z,0
2017-10-23T05:04:21.386Z,0
2017-10-23T05:05:01.877Z,0
2017-10-23T05:05:42.398Z,0
2017-10-23T05:06:22.871Z,0
2017-10-23T05:07:03.357Z,0
2017-10-23T05:07:43.860Z,0
2017-10-23T05:08:24.339Z,0
2017-10-23T05:09:04.815Z,0
2017-10-23T05:09:45.294Z,0
2017-10-23T05:10:25.827Z,0
2017-10-23T05:11:06.308Z,0
2017-10-23T05:11:46.806Z,0
2017-10-23T05:12:27.288Z,0
2017-10-23T05:13:07.754Z,0
2017-10-23T05:13:48.249Z,0
2017-10-23T05:14:28.766Z,0
2017-10-23T05:15:09.274Z,0
2017-10-23T05:15:49.772Z,0
2017-10-23T05:16:30.254Z,0
2017-10-23T05:17:10.716Z,0
2017-10-23T05:17:51.263Z,0
2017-10-23T05:18:31.737Z,0
2017-10-23T05:19:12.197Z,0
2017-10-23T05:19:52.673Z,0
2017-10-23T05:20:33.197Z,0
2017-10-23T05:21:13.654Z,0
2017-10-23T05:21:54.147Z,0
2017-10-23T05:22:34.635Z,0
2017-10-23T05:23:15.132Z,0
2017-10-23T05:23:55.611Z,0
2017-10-23T05:24:36.106Z,0
2017-10-23T05:25:16.571Z,0
2017-10-23T05:25:57.077Z,0
2017-10-23T05:26:37.544Z,0
2017-10-23T05:27:18.035Z,0
2017-10-23T05:27:58.550Z,0
2017-10-23T05:28:39.019Z,0
2017-10-23T05:29:20.078Z,0
2017-10-23T05:30:00.551Z,0
2017-10-23T05:30:41.032Z,0
2017-10-23T05:31:21.529Z,0
2017-10-23T05:32:02.019Z,0
2017-10-23T05:32:42.507Z,0
2017-10-23T05:33:22.999Z,0
2017-10-23T05:34:03.506Z,4
2017-10-23T05:34:43.980Z,4
2017-10-23T05:35:24.492Z,4
2017-10-23T05:36:04.984Z,4
2017-10-23T05:36:45.463Z,0
2017-10-23T05:37:25.981Z,4
2017-10-23T05:38:06.476Z,4
2017-10-23T05:38:46.936Z,4
2017-10-23T05:41:20.077Z,8
2017-10-23T05:42:00.590Z,8
2017-10-23T05:42:41.093Z,8
2017-10-23T05:43:21.613Z,12
2017-10-23T05:44:02.147Z,12
2017-10-23T05:44:42.629Z,12
2017-10-23T05:45:23.096Z,16
2017-10-23T05:46:03.563Z,16
2017-10-23T05:48:16.312Z,24
2017-10-23T05:48:56.785Z,28
2017-10-23T05:49:37.257Z,32
2017-10-23T05:50:17.719Z,32
2017-10-23T05:50:58.204Z,40
2017-10-23T05:51:38.639Z,44
2017-10-23T05:52:19.080Z,48
2017-10-23T05:52:59.624Z,52
2017-10-23T05:53:40.084Z,56
2017-10-23T05:54:20.576Z,60
2017-10-23T05:55:01.026Z,60
2017-10-23T05:55:41.467Z,68
2017-10-23T05:56:22.038Z,72
2017-10-23T05:57:02.704Z,76
2017-10-23T05:57:43.159Z,84
2017-10-23T05:58:23.594Z,96
2017-10-23T05:59:04.038Z,104
2017-10-23T05:59:44.515Z,112
2017-10-23T06:00:25.103Z,120
2017-10-23T06:01:05.847Z,132
2017-10-23T06:01:46.250Z,140
2017-10-23T06:02:26.700Z,148
2017-10-23T06:03:07.144Z,160
2017-10-23T06:03:47.616Z,168
2017-10-23T06:04:28.159Z,176
2017-10-23T06:05:08.736Z,184
2017-10-23T06:05:49.162Z,184
2017-10-23T06:06:29.624Z,192
2017-10-23T06:07:10.073Z,208
2017-10-23T06:07:50.524Z,220
2017-10-23T06:09:48.169Z,268
2017-10-23T06:10:28.672Z,256
2017-10-23T06:11:09.229Z,252
2017-10-23T06:11:49.763Z,264
2017-10-23T06:12:30.239Z,284
2017-10-23T06:13:10.724Z,296
2017-10-23T06:13:51.243Z,316
2017-10-23T06:14:31.736Z,336
2017-10-23T06:15:12.201Z,352
2017-10-23T06:15:52.718Z,372
2017-10-23T06:16:33.190Z,388
2017-10-23T06:17:13.672Z,404
2017-10-23T06:17:54.147Z,436
2017-10-23T06:18:34.658Z,456
2017-10-23T06:19:15.182Z,484
2017-10-23T06:19:55.640Z,492
2017-10-23T06:20:36.153Z,512
2017-10-23T06:21:16.705Z,524
2017-10-23T06:21:57.268Z,540
2017-10-23T06:22:37.799Z,552
2017-10-23T06:23:18.326Z,548
2017-10-23T06:23:58.864Z,528
2017-10-23T06:24:39.514Z,500
2017-10-23T06:25:20.095Z,492
2017-10-23T06:26:00.545Z,444
2017-10-23T06:26:41.116Z,448
2017-10-23T06:27:21.700Z,468
2017-10-23T06:28:02.196Z,484
2017-10-23T06:28:42.701Z,492
2017-10-23T06:29:23.217Z,500
2017-10-23T06:30:03.732Z,524
2017-10-23T06:30:44.235Z,552
2017-10-23T06:31:24.727Z,608
2017-10-23T06:33:42.515Z,664
2017-10-23T06:34:23.008Z,704
2017-10-23T06:35:03.477Z,728
2017-10-23T06:35:43.935Z,760
2017-10-23T06:36:24.429Z,812
2017-10-23T06:37:04.911Z,896
2017-10-23T06:37:45.422Z,1004
2017-10-23T06:38:25.899Z,1072
2017-10-23T06:39:06.470Z,1196
2017-10-23T06:39:46.999Z,1316
2017-10-23T06:40:27.496Z,1404
2017-10-23T06:43:00.507Z,1520
2017-10-23T06:43:41.002Z,1732
2017-10-23T06:44:21.510Z,2004
2017-10-23T06:45:01.989Z,2168
2017-10-23T06:45:42.500Z,2052
2017-10-23T06:46:22.985Z,1908
2017-10-23T06:47:03.484Z,1876
2017-10-23T06:47:43.951Z,2076
2017-10-23T06:48:24.446Z,2008
2017-10-23T06:49:04.913Z,1792
2017-10-23T06:49:45.406Z,1664
2017-10-23T06:50:25.881Z,1604
2017-10-23T06:51:06.379Z,1628
2017-10-23T06:51:46.873Z,1664
2017-10-23T06:52:27.375Z,1684
2017-10-23T06:53:07.870Z,1736
2017-10-23T06:53:48.429Z,1824
2017-10-23T06:54:28.942Z,1964
2017-10-23T06:55:09.437Z,2340
2017-10-23T06:55:49.912Z,2792
2017-10-23T06:56:30.368Z,3508
2017-10-23T06:57:10.875Z,3964
2017-10-23T06:57:51.375Z,3756
2017-10-23T06:58:31.901Z,2968
2017-10-23T06:59:12.354Z,2444
2017-10-23T06:59:52.841Z,2120
2017-10-23T07:00:33.308Z,2316
2017-10-23T07:01:13.774Z,2764
2017-10-23T07:01:54.247Z,2260
2017-10-23T07:02:34.702Z,1664
2017-10-23T07:03:15.149Z,1324
2017-10-23T07:03:55.625Z,1088
2017-10-23T07:04:36.148Z,1100
2017-10-23T07:05:16.635Z,1336
2017-10-23T07:05:57.126Z,1712
2017-10-23T07:06:37.636Z,1936
2017-10-23T07:07:18.137Z,1912
2017-10-23T07:07:58.644Z,1516
2017-10-23T07:08:39.118Z,1324
2017-10-23T07:09:19.581Z,1288
2017-10-23T07:10:00.062Z,1336
2017-10-23T07:10:40.543Z,1356
2017-10-23T07:11:21.047Z,1468
2017-10-23T07:12:01.511Z,1632
2017-10-23T07:12:41.967Z,1888
2017-10-23T07:15:09.876Z,2564
2017-10-23T07:15:50.381Z,2436
2017-10-23T07:16:30.849Z,2308
2017-10-23T07:17:11.344Z,2188
2017-10-23T07:17:51.841Z,2144
2017-10-23T07:18:32.328Z,2136
2017-10-23T07:19:12.795Z,2084
2017-10-23T07:19:53.300Z,2148
2017-10-23T07:20:33.819Z,2304
2017-10-23T07:21:14.300Z,2376
2017-10-23T07:21:54.807Z,2332
2017-10-23T07:22:35.292Z,2568
2017-10-23T07:23:15.816Z,3308
2017-10-23T07:23:56.324Z,4200
2017-10-23T07:24:36.819Z,5100
2017-10-23T07:25:17.292Z,5412
2017-10-23T07:25:57.730Z,5616
2017-10-23T07:27:55.441Z,6616
2017-10-23T07:28:35.904Z,7060
2017-10-23T07:29:16.373Z,6532
2017-10-23T07:29:56.877Z,6024
2017-10-23T07:30:37.375Z,5936
2017-10-23T07:31:17.874Z,5644
2017-10-23T07:31:58.356Z,5552
2017-10-23T07:34:16.159Z,4360
2017-10-23T07:34:56.662Z,4140
2017-10-23T07:35:37.149Z,4728
2017-10-23T07:36:17.618Z,4904
2017-10-23T07:36:58.096Z,5180
2017-10-23T07:37:38.571Z,6504
2017-10-23T07:39:51.330Z,7444
2017-10-23T07:40:31.863Z,6584
2017-10-23T07:41:12.433Z,5704
2017-10-23T07:41:52.996Z,5256
2017-10-23T07:42:33.593Z,5896
2017-10-23T07:43:14.798Z,6200
2017-10-23T07:43:55.391Z,7000
2017-10-23T07:44:36.037Z,7136
2017-10-23T07:45:16.644Z,7300
2017-10-23T07:45:57.320Z,6848
2017-10-23T07:46:37.841Z,6524
2017-10-23T07:47:18.432Z,6992
2017-10-23T07:47:59.002Z,7368
2017-10-23T07:48:39.543Z,8000
2017-10-23T07:49:20.080Z,8780
2017-10-23T07:50:00.628Z,8764
2017-10-23T07:50:41.206Z,8620
2017-10-23T07:51:21.769Z,8292
2017-10-23T07:52:02.347Z,7828
2017-10-23T07:52:42.880Z,7724
2017-10-23T07:53:23.501Z,7552
2017-10-23T07:54:04.110Z,7244
2017-10-23T07:54:44.702Z,6864
2017-10-23T07:55:25.275Z,6328
2017-10-23T07:56:05.942Z,5848
2017-10-23T07:56:46.557Z,5456
2017-10-23T07:57:27.209Z,5044
2017-10-23T07:58:07.762Z,4540
2017-10-23T07:58:48.367Z,4380
2017-10-23T07:59:28.939Z,4212
2017-10-23T08:00:09.494Z,4252
2017-10-23T08:00:50.077Z,4488
2017-10-23T08:01:30.676Z,5140
2017-10-23T08:02:11.252Z,5768
2017-10-23T08:02:51.811Z,6500
2017-10-23T08:03:32.354Z,7204
2017-10-23T08:04:12.900Z,8160
2017-10-23T08:04:53.437Z,8852
2017-10-23T08:05:33.936Z,9232
2017-10-23T08:06:14.440Z,9216
2017-10-23T08:06:55.034Z,8920
2017-10-23T08:07:35.590Z,9052
2017-10-23T08:08:16.160Z,8408
2017-10-23T08:08:56.734Z,9084
2017-10-23T08:09:37.332Z,9640
2017-10-23T08:10:17.923Z,10236
2017-10-23T08:10:58.491Z,10928
2017-10-23T08:11:39.037Z,11432
2017-10-23T08:12:19.574Z,11684
2017-10-23T08:13:00.179Z,11384
2017-10-23T08:13:40.821Z,10364
2017-10-23T08:14:21.374Z,8960
2017-10-23T08:15:01.864Z,8224
2017-10-23T08:15:42.344Z,7332
2017-10-23T08:16:22.816Z,6636
2017-10-23T08:17:03.324Z,5608
2017-10-23T08:17:43.780Z,4956
2017-10-23T08:18:24.237Z,4832
2017-10-23T08:19:04.711Z,4696
2017-10-23T08:19:45.199Z,3988
2017-10-23T08:20:25.715Z,3412
2017-10-23T08:21:06.266Z,2992
2017-10-23T08:21:46.804Z,3028
2017-10-23T08:22:27.352Z,3052
2017-10-23T08:23:07.889Z,2860
2017-10-23T08:23:48.416Z,2752
2017-10-23T08:24:28.977Z,3200
2017-10-23T08:25:09.473Z,3492
2017-10-23T08:25:49.935Z,3216
2017-10-23T08:26:30.386Z,3048
2017-10-23T08:27:10.888Z,2740
2017-10-23T08:27:51.372Z,2668
2017-10-23T08:28:31.836Z,2792
2017-10-23T08:29:12.292Z,3156
2017-10-23T08:29:52.749Z,3716
2017-10-23T08:30:33.201Z,3888
2017-10-23T08:31:13.722Z,3800
2017-10-23T08:33:46.834Z,3980
2017-10-23T08:34:27.289Z,4384
2017-10-23T08:35:07.742Z,4568
2017-10-23T08:35:48.320Z,4868
2017-10-23T08:36:29.020Z,5108
2017-10-23T08:37:09.555Z,4540
2017-10-23T08:37:50.057Z,4368
2017-10-23T08:38:30.532Z,4392
2017-10-23T08:39:11.062Z,5016
2017-10-23T08:39:51.591Z,5496
2017-10-23T08:40:33.135Z,5808
2017-10-23T08:41:13.689Z,6204
2017-10-23T08:41:54.275Z,6844
2017-10-23T08:42:34.841Z,6744
2017-10-23T08:43:15.493Z,6252
2017-10-23T08:43:56.122Z,6160
2017-10-23T08:44:36.793Z,6496
2017-10-23T08:45:17.348Z,6520
2017-10-23T08:45:58.035Z,6144
2017-10-23T08:46:38.656Z,5768
2017-10-23T08:47:19.260Z,5600
2017-10-23T08:47:59.826Z,5356
2017-10-23T08:48:40.397Z,5324
2017-10-23T08:49:21.002Z,5344
2017-10-23T08:50:01.588Z,5444
2017-10-23T08:50:42.226Z,5412
2017-10-23T08:51:22.855Z,5168
2017-10-23T08:52:03.409Z,4924
2017-10-23T08:52:44.047Z,4656
2017-10-23T08:53:24.709Z,4392
2017-10-23T08:54:05.292Z,4332
2017-10-23T08:54:45.919Z,4492
2017-10-23T08:55:26.461Z,5132
2017-10-23T08:56:07.062Z,4932
2017-10-23T08:56:47.690Z,5104
2017-10-23T08:57:28.377Z,5208
2017-10-23T08:58:09.048Z,5576
2017-10-23T08:58:50.228Z,5760
2017-10-23T08:59:30.890Z,5824
2017-10-23T09:00:11.525Z,6860
2017-10-23T09:00:52.063Z,7592
2017-10-23T09:01:32.613Z,8164
2017-10-23T09:02:13.220Z,8560
2017-10-23T09:02:53.777Z,8620
2017-10-23T09:03:34.357Z,8644
2017-10-23T09:04:15.028Z,8560
2017-10-23T09:04:55.638Z,8376
2017-10-23T09:05:36.234Z,8092
2017-10-23T09:06:16.827Z,8084
2017-10-23T09:06:57.357Z,8092
2017-10-23T09:07:37.789Z,8192
2017-10-23T09:08:18.254Z,8212
2017-10-23T09:08:58.739Z,7916
2017-10-23T09:09:39.173Z,7592
2017-10-23T09:10:19.655Z,7560
2017-10-23T09:11:00.104Z,7812
2017-10-23T09:11:40.629Z,8084
2017-10-23T09:12:21.157Z,8176
2017-10-23T09:13:01.701Z,8260
2017-10-23T09:13:42.166Z,8144
2017-10-23T09:16:10.260Z,8432
2017-10-23T09:16:50.679Z,8308
2017-10-23T09:17:31.129Z,8220
2017-10-23T09:18:11.673Z,8156
2017-10-23T09:18:52.303Z,8084
2017-10-23T09:19:32.881Z,8040
2017-10-23T09:20:13.454Z,7952
2017-10-23T09:20:54.074Z,7732
2017-10-23T09:21:34.699Z,7216
2017-10-23T09:22:15.300Z,7444
2017-10-23T09:22:55.926Z,7768
2017-10-23T09:23:36.472Z,8116
2017-10-23T09:24:17.069Z,8152
2017-10-23T09:24:57.680Z,8048
2017-10-23T09:25:38.237Z,8144
2017-10-23T09:26:18.743Z,8440
2017-10-23T09:26:59.242Z,8744
2017-10-23T09:27:39.773Z,9048
2017-10-23T09:28:20.405Z,9200
2017-10-23T09:29:00.971Z,9208
2017-10-23T09:29:41.438Z,9212
2017-10-23T09:30:21.898Z,9156
2017-10-23T09:31:02.359Z,9024
2017-10-23T09:31:42.972Z,8996
2017-10-23T09:32:23.474Z,9100
2017-10-23T09:33:03.998Z,9272
2017-10-23T09:33:44.494Z,9344
2017-10-23T09:34:25.025Z,9364
2017-10-23T09:35:05.574Z,9220
2017-10-23T09:35:46.028Z,9128
2017-10-23T09:36:26.584Z,9044
2017-10-23T09:37:06.995Z,8928
2017-10-23T09:37:47.513Z,8872
2017-10-23T09:38:27.950Z,8908
2017-10-23T09:39:08.422Z,8848
2017-10-23T09:39:48.919Z,8780
2017-10-23T09:40:29.693Z,8600
2017-10-23T09:41:10.128Z,8556
2017-10-23T09:41:50.654Z,8608
2017-10-23T09:42:31.134Z,8372
2017-10-23T09:43:11.667Z,8416
2017-10-23T09:43:52.102Z,8632
2017-10-23T09:45:49.775Z,9620
2017-10-23T09:46:30.203Z,9744
2017-10-23T09:47:10.697Z,9724
2017-10-23T09:47:51.137Z,9784
2017-10-23T09:48:31.618Z,10012
2017-10-23T09:49:12.054Z,10276
2017-10-23T09:49:52.499Z,10540
2017-10-23T09:50:32.956Z,10644
2017-10-23T09:51:13.433Z,10552
2017-10-23T09:53:46.400Z,9764
2017-10-23T09:54:26.901Z,10092
2017-10-23T09:55:07.388Z,10264
2017-10-23T09:55:47.864Z,10604
2017-10-23T09:56:28.427Z,10772
2017-10-23T09:57:08.899Z,10860
2017-10-23T09:57:49.329Z,10624
2017-10-23T09:58:29.814Z,10184
2017-10-23T09:59:10.319Z,10476
2017-10-23T09:59:50.812Z,10912
2017-10-23T10:00:31.250Z,11420
2017-10-23T10:01:11.698Z,11684
2017-10-23T10:01:52.731Z,11268
2017-10-23T10:02:33.228Z,11000
2017-10-23T10:03:13.664Z,10780
2017-10-23T10:03:54.140Z,11020
2017-10-23T10:04:34.725Z,11116
2017-10-23T10:05:15.322Z,11668
2017-10-23T10:05:55.868Z,11536
2017-10-23T10:06:36.464Z,10872
2017-10-23T10:07:17.064Z,10484
2017-10-23T10:07:57.645Z,10760
2017-10-23T10:08:38.276Z,11140
2017-10-23T10:09:18.875Z,11632
2017-10-23T10:09:59.388Z,10728
2017-10-23T10:10:39.910Z,10420
2017-10-23T10:11:20.401Z,9976
2017-10-23T10:12:00.887Z,10420
2017-10-23T10:12:41.453Z,10476